Latest Coastal Weather Observations for Broome

IDW60701

Issued at 8:03 pm WST Tuesday 6 December 2016 (issued every 10 minutes, with the page automatically refreshed every 10 minutes)

About coastal observations | Map of coastal stations | Coastal observations for WA | Marine services | Other Formats
Station Details ID: 003003 Name: BROOME AIRPORT Lat: -17.95 Lon: 122.24 Height: 7.42 m
Data from the previous 72 hours. | See also: Recent months at Broome
Date/Time
WST
Temp
°C
Wind Pressure Rain since
9am
mm
Weather Cloud Vis
km
Sea
Height
m
Swell
Dir  Spd
kts
Gust
kts
hPa Trend Height
m
Period
s
Dir
06/08:00pm 29.9 WSW 6 8 1009.7 - 0.0 - - 10 - - - -
06/07:30pm 30.0 W 6 8 1009.7 - 0.0 - - 10 - - - -
06/07:00pm 30.1 W 7 10 1009.5 - 0.0 - - 10 - - - -
06/06:30pm 30.0 W 8 11 1009.2 - 0.0 - - 10 - - - -
06/06:00pm 30.2 W 9 13 1008.7 - 0.0 - - 10 - - - -
06/05:30pm 30.3 WNW 9 13 1008.4 - 0.0 - - 10 - - - -
06/05:00pm 30.3 WNW 10 15 1008.0 - 0.0 - - 10 - - - -
06/04:30pm 30.5 WNW 11 15 1007.7 - 0.0 - - 10 - - - -
06/04:00pm 30.7 WNW 12 16 1007.6 - 0.0 - - 10 - - - -
06/03:30pm 30.9 W 12 15 1007.7 - 0.0 - - 10 - - - -
06/03:00pm 31.4 W 11 14 1007.5 - 0.0 - - 10 - - - -
06/02:30pm 31.7 W 11 14 1007.7 - 0.0 - - 10 - - - -
06/02:00pm 32.6 W 10 14 1008.0 - 0.0 - - 10 - - - -
06/01:30pm 32.7 W 11 15 1008.3 - 0.0 - - 10 - - - -
06/01:00pm 33.7 SSW 8 11 1008.7 - 0.0 - - 10 - - - -
06/12:30pm 32.7 SSW 10 13 1009.1 - 0.0 - Partly cloudy 10 - - - -
06/12:00pm 32.5 S 7 10 1009.3 - 0.0 - - 10 - - - -
06/11:30am 32.1 S 7 10 1009.6 - 0.0 - - 10 - - - -
06/11:00am 32.1 SSE 8 11 1010.0 - 0.0 - - 10 - - - -
06/10:30am 32.2 SSE 9 12 1010.3 - 0.0 - - 10 - - - -
06/10:00am 31.7 SE 9 11 1010.5 - 0.0 - Mostly clear 10 - - - -
06/09:30am 32.2 NE 5 8 1010.7 - 0.0 - Partly cloudy 10 - - - -
06/09:00am 31.8 ENE 5 7 1010.5 - 0.6 - Partly cloudy 10 - - - -
06/08:30am 31.3 ENE 8 10 1010.7 - 0.6 - - 10 - - - -
06/08:00am 30.2 ENE 8 11 1010.6 - 0.6 - Partly cloudy 10 - - - -
06/07:30am 28.1 ENE 8 11 1010.4 - 0.6 - Partly cloudy 10 - - - -
06/07:00am 27.1 ENE 8 10 1010.4 - 0.6 - Partly cloudy 10 - - - -
06/06:30am 26.3 ENE 6 8 1010.2 - 0.6 - Partly cloudy 10 - - - -
06/06:00am 25.7 E 5 7 1009.8 - 0.6 - Mostly clear 10 - - - -
06/05:30am 25.6 E 5 7 1009.7 - 0.6 - - 10 - - - -
06/05:00am 25.5 E 5 7 1009.3 - 0.6 - - 10 - - - -
06/04:30am 25.5 E 5 7 1009.1 - 0.6 - - 10 - - - -
06/04:00am 25.5 E 5 6 1009.0 - 0.6 - - 10 - - - -
06/03:30am 25.5 ENE 4 6 1008.9 - 0.6 - - 10 - - - -
06/03:00am 25.6 E 4 6 1008.8 - 0.6 - - 10 - - - -
06/02:30am 25.6 E 4 5 1008.9 - 0.6 - - 10 - - - -
06/02:00am 25.7 ENE 5 6 1008.8 - 0.6 - - 10 - - - -
06/01:30am 25.6 E 4 5 1009.0 - 0.6 - - 10 - - - -
06/01:00am 25.6 ENE 3 4 1009.2 - 0.6 - - 10 - - - -
06/12:30am 25.7 E 3 4 1009.3 - 0.6 - - 10 - - - -
06/12:00am 25.7 E 4 5 1009.3 - 0.6 - - 10 - - - -
 
Date/Time
WST
Temp
°C
Wind Pressure Rain since
9am
mm
Weather Cloud Vis
km
Sea
Height
m
Swell
Dir  Spd
kts
Gust
kts
hPa Trend Height
m
Period
s
Dir
05/11:30pm 25.8 E 3 4 1009.7 - 0.6 - - 10 - - - -
05/11:00pm 25.8 E 4 6 1010.0 - 0.6 - - 10 - - - -
05/10:30pm 25.8 NE 3 4 1010.4 - 0.6 - - 10 - - - -
05/10:00pm 25.7 NE 3 4 1010.4 - 0.6 - - 10 - - - -
05/09:30pm 25.7 ENE 4 6 1010.4 - 0.6 - - 10 - - - -
05/09:00pm 25.8 NE 3 5 1010.2 - 0.6 - - 10 - - - -
05/08:30pm 25.9 CALM 0 0 1010.0 - 0.6 - - 10 - - - -
05/08:00pm 25.9 CALM 0 0 1009.7 - 0.6 - - 10 - - - -
05/07:30pm 25.8 E 4 5 1009.3 - 0.6 - - 10 - - - -
05/07:00pm 25.8 E 5 7 1008.9 - 0.6 - - 10 - - - -
05/06:30pm 26.0 E 6 7 1008.7 - 0.4 - Partly cloudy 10 - - - -
05/06:00pm 26.9 SE 5 7 1008.3 - 0.4 - - 10 - - - -
05/05:30pm 27.0 SE 4 7 1008.2 - 0.4 - Partly cloudy 10 - - - -
05/05:00pm 27.5 SSE 5 6 1008.1 - 0.2 - Partly cloudy 10 - - - -
05/04:30pm 27.5 SE 4 6 1008.4 - 0.2 - Partly cloudy 10 - - - -
05/04:00pm 27.6 ESE 6 8 1008.6 - 0.2 - Mostly clear 10 - - - -
05/03:30pm 27.2 ESE 6 9 1008.8 - 0.2 - Mostly clear 10 - - - -
05/03:00pm 27.0 SE 7 9 1008.8 - 0.2 - Cloudy 10 - - - -
05/02:30pm 27.9 SSW 5 6 1009.1 - 0.2 Rain Mostly clear 10 - - - -
05/02:00pm 28.8 WNW 9 12 1009.2 - 0.2 - Mostly clear 10 - - - -
05/01:30pm 29.3 WNW 9 13 1009.2 - 0.2 Thunder Mostly clear 10 - - - -
05/01:00pm 29.5 W 5 8 1009.0 - 0.2 - Mostly clear 10 - - - -
05/12:30pm 28.0 W 5 8 1009.2 - 0.2 Rain Mostly clear 10 - - - -
05/12:00pm 29.1 NW 12 18 1009.3 - 0.0 - Mostly clear 10 - - - -
05/11:30am 29.9 WNW 9 12 1009.4 - 0.0 - Mostly clear 10 - - - -
05/11:00am 29.8 NW 8 11 1009.6 - 0.0 - Mostly clear 10 - - - -
05/10:30am 30.0 WNW 7 9 1009.8 - 0.0 - - 10 - - - -
05/10:00am 30.6 WNW 5 8 1009.8 - 0.0 - - 10 - - - -
05/09:30am 30.3 ESE 1 5 1009.9 - 0.0 - Mostly clear 10 - - - -
05/09:00am 29.8 ENE 4 6 1010.2 - 0.0 - Mostly clear 10 - - - -
05/08:30am 29.0 ENE 5 7 1010.2 - 0.0 - Mostly clear 10 - - - -
05/08:00am 28.1 ESE 5 7 1010.0 - 0.0 - - 10 - - - -
05/07:30am 27.7 ENE 5 6 1010.1 - 0.0 - Partly cloudy 10 - - - -
05/07:00am 26.8 E 6 7 1009.7 - 0.0 - Partly cloudy 10 - - - -
05/06:30am 26.3 E 7 9 1009.5 - 0.0 - Partly cloudy 10 - - - -
05/06:00am 25.9 E 6 8 1009.2 - 0.0 - Mostly clear 10 - - - -
05/05:30am 25.6 E 7 9 1008.8 - 0.0 - - 10 - - - -
05/05:00am 26.0 E 4 5 1008.4 - 0.0 - - 10 - - - -
05/04:30am 26.0 E 5 6 1008.2 - 0.0 - Partly cloudy 10 - - - -
05/04:00am 26.2 CALM 0 0 1008.2 - 0.0 - Partly cloudy 10 - - - -
05/03:30am 26.5 NE 5 8 1008.3 - 0.0 - Partly cloudy 10 - - - -
05/03:00am 26.6 NW 4 7 1008.2 - 0.0 - Mostly cloudy 10 - - - -
05/02:30am 26.4 SW 5 6 1008.4 - 0.0 - Cloudy 10 - - - -
05/02:00am 26.2 N 5 7 1008.3 - 0.0 - Partly cloudy 10 - - - -
05/01:30am 26.0 N 5 7 1008.4 - 0.0 - Cloudy 10 - - - -
05/01:00am 25.9 N 6 8 1008.7 - 0.0 - Partly cloudy 10 - - - -
05/12:30am 25.7 NNE 7 10 1008.9 - 0.0 - Partly cloudy 10 - - - -
05/12:00am 25.5 NNE 7 10 1009.5 - 0.0 - Cloudy 10 - - - -
 
Date/Time
WST
Temp
°C
Wind Pressure Rain since
9am
mm
Weather Cloud Vis
km
Sea
Height
m
Swell
Dir  Spd
kts
Gust
kts
hPa Trend Height
m
Period
s
Dir
04/11:30pm 25.3 ENE 10 13 1010.1 - 0.0 - Partly cloudy 10 - - - -
04/11:00pm 25.5 ENE 11 17 1010.2 - 0.0 - - 10 - - - -
04/10:30pm 26.0 ENE 12 16 1010.6 - 0.0 - Partly cloudy 10 - - - -
04/10:00pm 26.7 E 13 20 1010.6 - 0.0 - Partly cloudy 10 - - - -
04/09:30pm 26.8 ENE 10 16 1010.5 - 0.0 - Partly cloudy 10 - - - -
04/09:00pm 27.8 E 11 15 1010.2 - 0.0 - Mostly clear 10 - - - -
04/08:30pm 29.0 SSW 1 3 1009.3 - 0.0 - - 10 - - - -
04/08:00pm 28.9 WSW 5 8 1008.8 - 0.0 - - 10 - - - -
04/07:30pm 28.6 SW 6 9 1008.6 - 0.0 - - 10 - - - -
04/07:00pm 28.3 SSW 6 9 1008.5 - 0.0 - - 10 - - - -
04/06:30pm 27.8 SSW 5 8 1008.5 - 0.0 - - 10 - - - -
04/06:00pm 27.3 S 7 10 1007.8 - 0.0 - Mostly clear 10 - - - -
04/05:30pm 27.0 ESE 9 16 1007.8 - 0.0 - Partly cloudy 10 - - - -
04/05:00pm 30.5 W 7 10 1007.9 - 0.0 - Partly cloudy 10 - - - -
04/04:30pm 30.7 W 13 17 1007.1 - 0.0 - Partly cloudy 10 - - - -
04/04:00pm 32.2 W 15 20 1006.5 - 0.0 - - 10 - - - -
04/03:30pm 31.9 W 15 23 1006.4 - 0.0 - - 10 - - - -
04/03:00pm 31.3 W 16 21 1006.6 - 0.0 - - 10 - - - -
04/02:30pm 32.9 W 14 17 1006.9 - 0.0 - - 10 - - - -
04/02:00pm 31.6 W 12 16 1007.2 - 0.0 - - 10 - - - -
04/01:30pm 31.4 W 11 15 1007.4 - 0.0 - - 10 - - - -
04/01:00pm 31.8 SW 9 13 1007.3 - 0.0 - - 10 - - - -
04/12:30pm 32.1 WSW 11 15 1007.7 - 0.0 - - 10 - - - -
04/12:00pm 32.3 SSW 10 13 1007.8 - 0.0 - Partly cloudy 10 - - - -
04/11:30am 32.4 WSW 9 15 1008.1 - 0.0 - Partly cloudy 10 - - - -
04/11:00am 31.8 W 10 13 1008.8 - 0.0 - Partly cloudy 10 - - - -
04/10:30am 31.6 WSW 11 16 1009.5 - 0.0 - - 10 - - - -
04/10:00am 31.2 WSW 11 15 1009.9 - 0.0 - Partly cloudy 10 - - - -
04/09:30am 31.6 WSW 12 16 1009.7 - 0.0 - Partly cloudy 10 - - - -
04/09:00am 31.3 W 12 16 1009.7 - 0.0 - Mostly clear 10 - - - -
04/08:30am 31.2 W 10 15 1009.8 - 0.0 - Partly cloudy 10 - - - -
04/08:00am 30.7 W 11 18 1009.5 - 0.0 - Partly cloudy 10 - - - -
04/07:30am 30.7 WSW 11 15 1009.5 - 0.0 - Partly cloudy 10 - - - -
04/07:00am 30.2 W 10 14 1009.4 - 0.0 - Partly cloudy 10 - - - -
04/06:30am 30.1 W 10 14 1009.2 - 0.0 - Partly cloudy 10 - - - -
04/06:00am 29.7 W 7 11 1009.2 - 0.0 - Partly cloudy 10 - - - -
04/05:30am 29.1 W 7 9 1009.0 - 0.0 - Partly cloudy 10 - - - -
04/05:00am 29.0 W 7 8 1008.7 - 0.0 - Partly cloudy 10 - - - -
04/04:30am 29.0 W 8 11 1008.5 - 0.0 - Partly cloudy 10 - - - -
04/04:00am 29.1 W 9 13 1008.6 - 0.0 - Partly cloudy 10 - - - -
04/03:30am 29.0 W 9 12 1008.4 - 0.0 - Partly cloudy 10 - - - -
04/03:00am 29.0 W 9 14 1008.0 - 0.0 - Partly cloudy 10 - - - -
04/02:30am 29.0 W 9 13 1007.9 - 0.0 - Partly cloudy 10 - - - -
04/02:00am 29.0 W 9 13 1007.9 - 0.0 - Partly cloudy 10 - - - -
04/01:30am 29.0 W 10 14 1008.2 - 0.0 - Partly cloudy 10 - - - -
04/01:00am 29.0 WNW 9 13 1008.4 - 0.0 - Partly cloudy 10 - - - -
04/12:30am 29.0 WNW 10 13 1008.3 - 0.0 - - 10 - - - -
04/12:00am 29.0 WNW 8 11 1008.5 - 0.0 - - 10 - - - -
 
Date/Time
WST
Temp
°C
Wind Pressure Rain since
9am
mm
Weather Cloud Vis
km
Sea
Height
m
Swell
Dir  Spd
kts
Gust
kts
hPa Trend Height
m
Period
s
Dir
03/11:30pm 29.0 WNW 8 13 1008.9 - 0.0 - Partly cloudy 10 - - - -
03/11:00pm 29.2 WNW 8 11 1009.3 - 0.0 - - 10 - - - -
03/10:30pm 29.3 WNW 8 11 1009.3 - 0.0 - - 10 - - - -
03/10:00pm 29.4 W 9 13 1009.2 - 0.0 - - 10 - - - -
03/09:30pm 29.5 W 7 11 1009.1 - 0.0 - Partly cloudy 10 - - - -
03/09:00pm 29.6 W 8 11 1008.9 - 0.0 - Mostly clear 10 - - - -
03/08:30pm 29.7 W 9 12 1008.9 - 0.0 - - 10 - - - -

Other Formats:

Comma delimited format used in spreadsheet applications
http://www.bom.gov.au/fwo/IDW60701/IDW60701.94203.axf

JavaScript Object Notation format (JSON) in row-major order
http://www.bom.gov.au/fwo/IDW60701/IDW60701.94203.json